Time;durP1;ratioP1;P1;durP2;ratioP2;P2;SDS_P1;SDS_P2;PMS_P1;PMS_P2;Temp;Humidity;BMP_temperature;BMP_pressure;BME280_temperature;BME280_humidity;BME280_pressure;Samples;Min_cycle;Max_cycle;Signal;HPM_P1;HPM_P2
2022/03/14 00:01:43;;;;;;;17.23;10.85;;;;;;;;;;8178163;28;20413;-58
2022/03/14 00:05:44;;;;;;;18.85;10.23;;;;;;;;;;8176383;28;20026;-58
2022/03/14 00:09:44;;;;;;;16.55;9.98;;;;;;;;;;8177527;28;20706;-58
2022/03/14 00:13:46;;;;;;;15.10;10.15;;;;;;;;;;8177209;28;20300;-58
2022/03/14 00:17:47;;;;;;;16.15;10.45;;;;;;;;;;8176631;28;20473;-58
2022/03/14 00:21:49;;;;;;;20.88;10.88;;;;;;;;;;8176356;28;20341;-58
2022/03/14 00:25:50;;;;;;;15.55;10.50;;;;;;;;;;8176983;28;20030;-58
2022/03/14 00:29:50;;;;;;;16.13;10.40;;;;;;;;;;8178434;28;20039;-58
2022/03/14 00:33:50;;;;;;;18.88;10.73;;;;;;;;;;8179886;28;20095;-59
2022/03/14 00:37:51;;;;;;;17.45;11.77;;;;;;;;;;8176913;28;20023;-58
2022/03/14 00:41:51;;;;;;;18.85;11.48;;;;;;;;;;8177228;28;20031;-58
2022/03/14 00:45:51;;;;;;;18.77;11.85;;;;;;;;;;8179776;28;20043;-58
2022/03/14 00:49:51;;;;;;;28.13;12.07;;;;;;;;;;8178245;28;20027;-57
2022/03/14 00:53:51;;;;;;;25.27;12.13;;;;;;;;;;8177321;28;20030;-58
2022/03/14 00:57:52;;;;;;;20.15;12.65;;;;;;;;;;8177937;28;20034;-58
2022/03/14 01:01:52;;;;;;;20.70;12.20;;;;;;;;;;8173270;28;20035;-59
2022/03/14 01:05:52;;;;;;;18.15;11.65;;;;;;;;;;8176696;28;20031;-59
2022/03/14 01:09:52;;;;;;;18.90;12.23;;;;;;;;;;8172127;28;20644;-58
2022/03/14 01:13:52;;;;;;;18.98;11.27;;;;;;;;;;8178916;28;20378;-58
2022/03/14 01:17:54;;;;;;;13.60;10.30;;;;;;;;;;8171592;28;20054;-59
2022/03/14 01:21:54;;;;;;;11.75;8.50;;;;;;;;;;8172572;28;20479;-58
2022/03/14 01:25:54;;;;;;;10.82;7.78;;;;;;;;;;8172726;28;20058;-57
2022/03/14 01:29:55;;;;;;;6.25;5.25;;;;;;;;;;8174131;28;20022;-58
2022/03/14 01:33:55;;;;;;;5.50;4.18;;;;;;;;;;8176605;28;20673;-58
2022/03/14 01:37:57;;;;;;;3.58;3.22;;;;;;;;;;8180433;28;20448;-58
2022/03/14 01:41:58;;;;;;;3.92;3.40;;;;;;;;;;8180308;28;20145;-58
2022/03/14 01:45:58;;;;;;;2.50;2.30;;;;;;;;;;8181201;28;20075;-57
2022/03/14 01:49:58;;;;;;;1.90;1.80;;;;;;;;;;8181929;28;20030;-58
2022/03/14 01:53:59;;;;;;;2.85;1.65;;;;;;;;;;8183162;28;20027;-57
2022/03/14 01:58:00;;;;;;;2.45;1.70;;;;;;;;;;8181797;28;20030;-57
2022/03/14 02:02:00;;;;;;;2.10;1.80;;;;;;;;;;8180821;28;20066;-58
2022/03/14 02:06:00;;;;;;;1.50;1.40;;;;;;;;;;8182050;28;20293;-57
2022/03/14 02:10:01;;;;;;;1.40;1.30;;;;;;;;;;8183188;28;20058;-57
2022/03/14 02:14:01;;;;;;;1.75;1.60;;;;;;;;;;8182259;28;20105;-57
2022/03/14 02:18:02;;;;;;;1.63;1.52;;;;;;;;;;8181235;28;20092;-57
2022/03/14 02:22:03;;;;;;;1.50;1.40;;;;;;;;;;8180381;28;20062;-58
2022/03/14 02:26:03;;;;;;;1.70;1.33;;;;;;;;;;8181696;28;20397;-58
2022/03/14 02:30:04;;;;;;;1.67;1.35;;;;;;;;;;8179891;28;20027;-58
2022/03/14 02:34:05;;;;;;;1.38;1.27;;;;;;;;;;8183022;28;20547;-57
2022/03/14 02:38:09;;;;;;;1.45;1.35;;;;;;;;;;8181575;28;20487;-57
2022/03/14 02:42:10;;;;;;;1.30;1.20;;;;;;;;;;8181738;28;20035;-58
2022/03/14 02:46:10;;;;;;;1.58;1.10;;;;;;;;;;8181625;28;20042;-58
2022/03/14 02:50:11;;;;;;;1.40;1.20;;;;;;;;;;8184129;28;20121;-58
2022/03/14 02:54:11;;;;;;;1.10;1.10;;;;;;;;;;8179091;28;20038;-58
2022/03/14 02:58:11;;;;;;;1.27;1.00;;;;;;;;;;8181991;28;20022;-57
2022/03/14 03:02:11;;;;;;;1.10;1.00;;;;;;;;;;8181020;28;20042;-57
2022/03/14 03:06:13;;;;;;;4.22;1.00;;;;;;;;;;8183286;28;20145;-57
2022/03/14 03:10:13;;;;;;;1.15;1.02;;;;;;;;;;8180482;28;20129;-57
2022/03/14 03:14:13;;;;;;;2.10;1.03;;;;;;;;;;8181608;28;20078;-57
2022/03/14 03:18:13;;;;;;;1.85;1.20;;;;;;;;;;8180193;28;20400;-57
2022/03/14 03:22:14;;;;;;;1.65;1.55;;;;;;;;;;8181630;28;20027;-58
2022/03/14 03:26:14;;;;;;;1.77;1.67;;;;;;;;;;8179236;28;20030;-59
2022/03/14 03:30:14;;;;;;;2.17;1.77;;;;;;;;;;8178109;28;20027;-57
2022/03/14 03:34:15;;;;;;;2.20;2.00;;;;;;;;;;8177660;28;20023;-57
2022/03/14 03:38:15;;;;;;;2.35;2.08;;;;;;;;;;8180984;28;20150;-57
2022/03/14 03:42:15;;;;;;;1.80;1.70;;;;;;;;;;8181520;28;20054;-57
2022/03/14 03:46:15;;;;;;;3.38;2.10;;;;;;;;;;8181374;28;20056;-58
2022/03/14 03:50:16;;;;;;;2.40;2.20;;;;;;;;;;8179117;28;20097;-57
2022/03/14 03:54:16;;;;;;;3.37;3.07;;;;;;;;;;8182998;28;20266;-57
2022/03/14 03:58:16;;;;;;;3.10;2.80;;;;;;;;;;8181469;28;20270;-57
2022/03/14 04:02:19;;;;;;;3.00;2.80;;;;;;;;;;8177459;28;20039;-57
2022/03/14 04:06:20;;;;;;;3.80;3.40;;;;;;;;;;8177586;28;20857;-58
2022/03/14 04:10:20;;;;;;;2.92;2.70;;;;;;;;;;8177321;28;20046;-57
2022/03/14 04:14:21;;;;;;;3.28;2.97;;;;;;;;;;8178649;28;20853;-58
2022/03/14 04:18:24;;;;;;;3.70;3.40;;;;;;;;;;8178953;28;20093;-57
2022/03/14 04:22:25;;;;;;;3.85;3.55;;;;;;;;;;8179523;28;20086;-58
2022/03/14 04:26:25;;;;;;;5.03;3.85;;;;;;;;;;8175371;28;20035;-58
2022/03/14 04:30:26;;;;;;;4.38;3.97;;;;;;;;;;8180901;28;20034;-58
2022/03/14 04:34:26;;;;;;;5.28;4.63;;;;;;;;;;8176499;28;20558;-58
2022/03/14 04:38:27;;;;;;;5.10;4.60;;;;;;;;;;8178441;28;21098;-58
2022/03/14 04:42:27;;;;;;;5.10;4.35;;;;;;;;;;8175106;28;20409;-60
2022/03/14 04:46:27;;;;;;;5.13;4.50;;;;;;;;;;8176305;28;20049;-57
2022/03/14 04:50:27;;;;;;;6.22;4.57;;;;;;;;;;8179952;28;20031;-58
2022/03/14 04:54:28;;;;;;;5.53;4.18;;;;;;;;;;8177118;28;20427;-58
2022/03/14 04:58:28;;;;;;;4.85;4.28;;;;;;;;;;8176694;28;20030;-58
2022/03/14 05:02:29;;;;;;;4.10;3.70;;;;;;;;;;8174344;28;20652;-58
2022/03/14 05:06:29;;;;;;;5.03;3.80;;;;;;;;;;8178706;28;20023;-59
2022/03/14 05:10:30;;;;;;;4.53;3.78;;;;;;;;;;8183151;28;20082;-59
2022/03/14 05:14:30;;;;;;;4.60;3.03;;;;;;;;;;8183904;28;20062;-59
2022/03/14 05:18:30;;;;;;;5.18;3.47;;;;;;;;;;8184906;28;20048;-59
2022/03/14 05:22:32;;;;;;;5.45;2.95;;;;;;;;;;8181468;28;20039;-59
2022/03/14 05:26:32;;;;;;;6.00;3.10;;;;;;;;;;8184909;28;20503;-58
2022/03/14 05:30:32;;;;;;;8.80;3.60;;;;;;;;;;8184161;28;20039;-58
2022/03/14 05:34:34;;;;;;;5.22;3.38;;;;;;;;;;8182151;28;20035;-59
2022/03/14 05:38:35;;;;;;;6.10;2.92;;;;;;;;;;8184026;28;20042;-58
2022/03/14 05:42:35;;;;;;;7.30;3.55;;;;;;;;;;8182759;28;20034;-58
2022/03/14 05:46:35;;;;;;;8.18;4.10;;;;;;;;;;8181338;28;20070;-58
2022/03/14 05:50:35;;;;;;;7.15;3.63;;;;;;;;;;8180988;28;20511;-58
2022/03/14 05:54:36;;;;;;;8.55;3.83;;;;;;;;;;8182219;28;20082;-58
2022/03/14 05:58:36;;;;;;;10.57;4.28;;;;;;;;;;8184678;28;20452;-57
2022/03/14 06:02:36;;;;;;;8.07;3.72;;;;;;;;;;8182559;28;20063;-59
2022/03/14 06:06:37;;;;;;;8.63;4.03;;;;;;;;;;8183440;28;20058;-58
2022/03/14 06:10:37;;;;;;;11.30;4.78;;;;;;;;;;8180596;28;20031;-62
2022/03/14 06:14:38;;;;;;;8.52;4.00;;;;;;;;;;8182303;28;20110;-57
2022/03/14 06:18:38;;;;;;;8.13;4.00;;;;;;;;;;8181032;28;20035;-61
2022/03/14 06:22:39;;;;;;;5.70;4.10;;;;;;;;;;8182553;28;20050;-58
2022/03/14 06:26:39;;;;;;;12.50;4.90;;;;;;;;;;8185188;28;20212;-61
2022/03/14 06:30:39;;;;;;;11.07;4.47;;;;;;;;;;8185432;28;21640;-61
2022/03/14 06:34:40;;;;;;;15.55;3.95;;;;;;;;;;8179057;28;20731;-59
2022/03/14 06:38:40;;;;;;;8.75;3.90;;;;;;;;;;8187178;28;20034;-60
2022/03/14 06:42:48;;;;;;;7.03;3.08;;;;;;;;;;8193264;28;20035;-61
2022/03/14 06:46:49;;;;;;;7.07;3.30;;;;;;;;;;8190983;28;20105;-64
2022/03/14 06:50:49;;;;;;;8.07;2.83;;;;;;;;;;8185980;28;20031;-60
2022/03/14 06:54:49;;;;;;;6.88;3.33;;;;;;;;;;8186906;28;20034;-58
2022/03/14 06:58:49;;;;;;;6.32;2.92;;;;;;;;;;8187394;28;20030;-59
2022/03/14 07:02:49;;;;;;;7.38;3.60;;;;;;;;;;8189348;28;20147;-60
2022/03/14 07:06:50;;;;;;;9.50;3.58;;;;;;;;;;8190931;28;20424;-58
2022/03/14 07:10:50;;;;;;;11.00;4.55;;;;;;;;;;8185784;28;20026;-58
2022/03/14 07:14:50;;;;;;;10.38;4.70;;;;;;;;;;8188010;28;20015;-59
2022/03/14 07:18:50;;;;;;;8.52;4.07;;;;;;;;;;8185238;28;20041;-59
2022/03/14 07:22:52;;;;;;;9.02;4.43;;;;;;;;;;8186446;28;20026;-61
2022/03/14 07:26:52;;;;;;;7.15;4.22;;;;;;;;;;8182798;28;20367;-59
2022/03/14 07:30:52;;;;;;;15.77;4.07;;;;;;;;;;8184995;28;20152;-58
2022/03/14 07:34:52;;;;;;;9.30;4.57;;;;;;;;;;8185441;28;20448;-58
2022/03/14 07:38:55;;;;;;;15.18;5.88;;;;;;;;;;8185934;28;20372;-59
2022/03/14 07:42:59;;;;;;;10.35;4.80;;;;;;;;;;8184217;28;20110;-58
2022/03/14 07:47:00;;;;;;;;;;;;;;;;;;8183644;28;20081;-58
2022/03/14 07:51:00;;;;;;;8.18;4.45;;;;;;;;;;8182359;28;20441;-59
2022/03/14 07:55:00;;;;;;;14.63;4.85;;;;;;;;;;8181848;28;20209;-59
2022/03/14 07:59:00;;;;;;;7.03;4.07;;;;;;;;;;8186817;28;20035;-59
2022/03/14 08:03:01;;;;;;;12.35;4.20;;;;;;;;;;8182935;28;20299;-58
2022/03/14 08:07:01;;;;;;;10.65;5.13;;;;;;;;;;8184043;28;20045;-58
2022/03/14 08:11:04;;;;;;;9.82;4.68;;;;;;;;;;8183753;28;20845;-59
2022/03/14 08:15:05;;;;;;;10.68;5.18;;;;;;;;;;8183680;28;20025;-60
2022/03/14 08:19:06;;;;;;;9.40;5.10;;;;;;;;;;8181366;28;20340;-58
2022/03/14 08:23:06;;;;;;;6.57;5.03;;;;;;;;;;8178339;28;20054;-59
2022/03/14 08:27:06;;;;;;;12.67;5.20;;;;;;;;;;8179346;28;20031;-58
2022/03/14 08:31:06;;;;;;;15.48;5.90;;;;;;;;;;8184009;28;20267;-59
2022/03/14 08:35:08;;;;;;;9.17;4.33;;;;;;;;;;8178242;28;20027;-61
2022/03/14 08:39:08;;;;;;;10.02;4.05;;;;;;;;;;8181566;28;20034;-59
2022/03/14 08:43:09;;;;;;;11.85;3.97;;;;;;;;;;8182150;28;20058;-58
2022/03/14 08:47:09;;;;;;;10.20;3.63;;;;;;;;;;8183627;28;20558;-61
2022/03/14 08:51:09;;;;;;;6.40;3.25;;;;;;;;;;8185602;28;20031;-59
2022/03/14 08:55:10;;;;;;;7.03;3.60;;;;;;;;;;8184440;28;20170;-59
2022/03/14 08:59:12;;;;;;;9.82;4.38;;;;;;;;;;8181062;28;20365;-60
2022/03/14 09:03:12;;;;;;;10.98;3.67;;;;;;;;;;8182957;28;20035;-58
2022/03/14 09:07:23;;;;;;;6.15;4.20;;;;;;;;;;8184059;28;20543;-59
2022/03/14 09:11:24;;;;;;;10.30;4.22;;;;;;;;;;8184064;28;20038;-59
2022/03/14 09:15:24;;;;;;;8.95;4.20;;;;;;;;;;8175569;28;20455;-60
2022/03/14 09:19:27;;;;;;;8.52;4.95;;;;;;;;;;8176247;28;20696;-59
2022/03/14 09:23:27;;;;;;;9.27;4.72;;;;;;;;;;8183199;28;20030;-59
2022/03/14 09:27:28;;;;;;;10.30;5.00;;;;;;;;;;8184948;28;20133;-60
2022/03/14 09:31:29;;;;;;;9.95;5.07;;;;;;;;;;8180802;28;20595;-59
2022/03/14 09:35:30;;;;;;;8.80;5.43;;;;;;;;;;8182531;28;20094;-59
2022/03/14 09:39:32;;;;;;;8.30;5.18;;;;;;;;;;8180862;28;20041;-59
2022/03/14 09:43:37;;;;;;;8.38;5.20;;;;;;;;;;8181945;28;20046;-60
2022/03/14 09:47:39;;;;;;;6.85;4.60;;;;;;;;;;8182701;28;20575;-59
2022/03/14 09:51:39;;;;;;;8.35;5.13;;;;;;;;;;8182215;28;20030;-58
2022/03/14 09:55:43;;;;;;;8.90;5.00;;;;;;;;;;8180897;28;21413;-60
2022/03/14 09:59:43;;;;;;;;;;;;;;;;;;8182349;28;20055;-58
2022/03/14 10:03:43;;;;;;;8.13;4.03;;;;;;;;;;8183793;28;20524;-60
2022/03/14 10:07:44;;;;;;;9.57;4.07;;;;;;;;;;8191302;28;20042;-61
2022/03/14 10:11:45;;;;;;;6.10;3.90;;;;;;;;;;8186280;28;20015;-60
2022/03/14 10:15:45;;;;;;;6.03;3.70;;;;;;;;;;8189059;28;21106;-59
2022/03/14 10:19:53;;;;;;;9.70;3.85;;;;;;;;;;8186887;28;20459;-59
2022/03/14 10:23:53;;;;;;;7.63;3.92;;;;;;;;;;8189121;28;20035;-59
2022/03/14 10:27:56;;;;;;;6.85;3.80;;;;;;;;;;8188860;28;20574;-59
2022/03/14 10:31:57;;;;;;;4.97;3.83;;;;;;;;;;8187167;28;20038;-58
2022/03/14 10:35:57;;;;;;;7.70;3.75;;;;;;;;;;8187838;28;20012;-60
2022/03/14 10:40:03;;;;;;;7.57;3.40;;;;;;;;;;8192409;28;20129;-60
2022/03/14 10:44:03;;;;;;;5.70;3.95;;;;;;;;;;8188327;28;20456;-59
2022/03/14 10:48:04;;;;;;;5.65;3.88;;;;;;;;;;8184077;28;20031;-60
2022/03/14 10:52:06;;;;;;;6.35;4.03;;;;;;;;;;8189355;28;20110;-59
2022/03/14 10:56:07;;;;;;;6.43;3.85;;;;;;;;;;8189059;28;20494;-61
2022/03/14 11:00:09;;;;;;;6.32;4.07;;;;;;;;;;8185256;28;20027;-59
2022/03/14 11:04:09;;;;;;;9.60;3.85;;;;;;;;;;8186321;28;20035;-58
2022/03/14 11:08:28;;;;;;;9.90;3.88;;;;;;;;;;8185399;28;20627;-60
2022/03/14 11:12:30;;;;;;;5.32;3.40;;;;;;;;;;8185886;28;20525;-58
2022/03/14 11:16:34;;;;;;;6.95;3.33;;;;;;;;;;8185545;28;20054;-59
2022/03/14 11:20:34;;;;;;;7.95;3.47;;;;;;;;;;8183688;28;20459;-58
2022/03/14 11:24:34;;;;;;;6.23;3.43;;;;;;;;;;8186427;28;20041;-59
2022/03/14 11:28:35;;;;;;;5.82;3.15;;;;;;;;;;8189254;28;20659;-59
2022/03/14 11:32:41;;;;;;;6.28;3.10;;;;;;;;;;8187356;28;20042;-60
2022/03/14 11:36:41;;;;;;;9.45;3.63;;;;;;;;;;8183520;28;20025;-61
2022/03/14 11:40:42;;;;;;;3.65;3.20;;;;;;;;;;8185154;28;20034;-59
2022/03/14 11:44:43;;;;;;;5.65;3.15;;;;;;;;;;8189556;28;20545;-61
2022/03/14 11:48:43;;;;;;;5.75;2.85;;;;;;;;;;8187610;28;20679;-57
2022/03/14 11:52:43;;;;;;;6.05;2.60;;;;;;;;;;8188638;28;20761;-60
2022/03/14 11:56:54;;;;;;;5.38;2.70;;;;;;;;;;8185329;28;20108;-59
2022/03/14 12:00:55;;;;;;;4.18;2.53;;;;;;;;;;8184003;28;20085;-60
2022/03/14 12:04:58;;;;;;;6.10;2.47;;;;;;;;;;8184216;28;20428;-60
2022/03/14 12:08:59;;;;;;;7.03;1.88;;;;;;;;;;8184178;28;20817;-60
2022/03/14 12:12:59;;;;;;;3.43;1.63;;;;;;;;;;8183152;28;20061;-60
2022/03/14 12:17:07;;;;;;;4.45;2.05;;;;;;;;;;8182428;28;20637;-60
2022/03/14 12:21:27;;;;;;;3.63;1.58;;;;;;;;;;8187293;28;20031;-62
2022/03/14 12:25:41;;;;;;;3.42;1.70;;;;;;;;;;8190027;28;20030;-59
2022/03/14 12:29:41;;;;;;;3.80;1.90;;;;;;;;;;8173357;28;20248;-61
2022/03/14 12:33:46;;;;;;;3.35;2.08;;;;;;;;;;8161989;28;20042;-61
2022/03/14 12:37:52;;;;;;;4.78;2.05;;;;;;;;;;8151495;28;20031;-59
2022/03/14 12:41:52;;;;;;;2.25;1.70;;;;;;;;;;8152084;29;20038;-59
2022/03/14 12:45:54;;;;;;;3.15;1.95;;;;;;;;;;8155209;28;20031;-60
2022/03/14 12:49:55;;;;;;;3.92;1.70;;;;;;;;;;8153423;28;20146;-60
2022/03/14 12:53:59;;;;;;;3.75;1.63;;;;;;;;;;8152176;28;20027;-60
2022/03/14 12:57:59;;;;;;;6.10;1.67;;;;;;;;;;8149283;29;20094;-59
2022/03/14 13:01:59;;;;;;;1.83;1.10;;;;;;;;;;8148458;28;20515;-60
2022/03/14 13:06:00;;;;;;;2.35;1.40;;;;;;;;;;8156285;29;20028;-60
2022/03/14 13:10:00;;;;;;;5.10;1.10;;;;;;;;;;8150407;29;20047;-58
2022/03/14 13:14:02;;;;;;;2.55;1.10;;;;;;;;;;8153471;28;20662;-59
2022/03/14 13:18:03;;;;;;;3.40;1.20;;;;;;;;;;8150209;28;20044;-60
2022/03/14 13:22:14;;;;;;;2.67;1.38;;;;;;;;;;8154307;28;20034;-58
2022/03/14 13:26:17;;;;;;;3.53;1.00;;;;;;;;;;8160844;29;20103;-59
2022/03/14 13:30:18;;;;;;;5.45;1.33;;;;;;;;;;8160573;28;20888;-59
2022/03/14 13:34:22;;;;;;;2.85;1.13;;;;;;;;;;8164274;28;20141;-60
2022/03/14 13:38:28;;;;;;;3.85;1.40;;;;;;;;;;8156256;28;20613;-59
2022/03/14 13:42:32;;;;;;;2.53;1.00;;;;;;;;;;8156822;29;20045;-59
2022/03/14 13:46:32;;;;;;;4.13;1.25;;;;;;;;;;8153401;28;20457;-60
2022/03/14 13:50:43;;;;;;;2.95;1.10;;;;;;;;;;8153745;28;20070;-60
2022/03/14 13:54:45;;;;;;;4.03;1.17;;;;;;;;;;8146238;28;20487;-60
2022/03/14 13:58:54;;;;;;;6.22;1.10;;;;;;;;;;8152036;28;20098;-60
2022/03/14 14:02:58;;;;;;;2.53;1.20;;;;;;;;;;8151449;28;20130;-59
2022/03/14 14:06:59;;;;;;;3.03;1.23;;;;;;;;;;8155054;29;20702;-59
2022/03/14 14:10:59;;;;;;;2.58;1.20;;;;;;;;;;8151271;28;20777;-58
2022/03/14 14:15:00;;;;;;;3.08;1.10;;;;;;;;;;8154037;28;20440;-59
2022/03/14 14:19:14;;;;;;;4.22;1.13;;;;;;;;;;8148689;28;20050;-59
2022/03/14 14:23:15;;;;;;;2.43;0.90;;;;;;;;;;8153044;29;20059;-60
2022/03/14 14:27:15;;;;;;;3.03;1.17;;;;;;;;;;8146473;29;20039;-60
2022/03/14 14:31:16;;;;;;;2.65;1.08;;;;;;;;;;8147692;28;20043;-61
2022/03/14 14:35:17;;;;;;;3.90;1.20;;;;;;;;;;8150138;28;20024;-60
2022/03/14 14:39:18;;;;;;;2.47;1.10;;;;;;;;;;8147269;28;20217;-60
2022/03/14 14:43:19;;;;;;;1.88;1.00;;;;;;;;;;8149043;28;20518;-59
2022/03/14 14:47:19;;;;;;;3.53;1.17;;;;;;;;;;8152472;28;20050;-59
2022/03/14 14:51:20;;;;;;;4.90;1.20;;;;;;;;;;8147437;28;20037;-59
2022/03/14 14:55:20;;;;;;;3.80;1.08;;;;;;;;;;8150725;28;20118;-59
2022/03/14 14:59:21;;;;;;;3.78;1.00;;;;;;;;;;8153479;29;20035;-61
2022/03/14 15:03:21;;;;;;;6.72;1.35;;;;;;;;;;8152833;28;20047;-61
2022/03/14 15:07:21;;;;;;;3.78;1.40;;;;;;;;;;8159254;28;20036;-62
2022/03/14 15:11:22;;;;;;;6.93;1.50;;;;;;;;;;8153429;28;20037;-60
2022/03/14 15:15:22;;;;;;;4.32;1.00;;;;;;;;;;8152725;28;20956;-61
2022/03/14 15:19:23;;;;;;;7.75;1.33;;;;;;;;;;8153460;28;20430;-61
2022/03/14 15:23:23;;;;;;;2.40;0.98;;;;;;;;;;8150711;28;20598;-60
2022/03/14 15:27:23;;;;;;;5.97;1.00;;;;;;;;;;8152903;28;20062;-61
2022/03/14 15:31:23;;;;;;;3.08;1.02;;;;;;;;;;8150673;28;20421;-60
2022/03/14 15:35:23;;;;;;;2.30;0.90;;;;;;;;;;8151843;28;20425;-59
2022/03/14 15:39:23;;;;;;;4.50;1.10;;;;;;;;;;8156019;29;20535;-61
2022/03/14 15:43:25;;;;;;;3.20;1.10;;;;;;;;;;8152302;28;20027;-60
2022/03/14 15:47:25;;;;;;;3.00;0.90;;;;;;;;;;8152424;28;20054;-61
2022/03/14 15:51:25;;;;;;;3.47;1.10;;;;;;;;;;8155909;28;20032;-60
2022/03/14 15:55:25;;;;;;;4.28;0.93;;;;;;;;;;8151696;28;20035;-60
2022/03/14 15:59:27;;;;;;;2.63;0.80;;;;;;;;;;8153093;28;20094;-60
2022/03/14 16:03:27;;;;;;;6.10;1.20;;;;;;;;;;8154563;28;20414;-61
2022/03/14 16:07:27;;;;;;;4.57;1.70;;;;;;;;;;8156094;29;20027;-60
2022/03/14 16:11:29;;;;;;;2.75;1.10;;;;;;;;;;8153198;29;20539;-60
2022/03/14 16:15:30;;;;;;;3.35;1.17;;;;;;;;;;8153360;28;20042;-60
2022/03/14 16:19:30;;;;;;;3.20;1.25;;;;;;;;;;8154951;29;20031;-61
2022/03/14 16:23:30;;;;;;;4.35;1.33;;;;;;;;;;8153323;28;20027;-61
2022/03/14 16:27:31;;;;;;;3.85;1.30;;;;;;;;;;8155440;28;20035;-63
2022/03/14 16:31:33;;;;;;;3.20;1.30;;;;;;;;;;8153206;28;20046;-62
2022/03/14 16:35:33;;;;;;;3.72;1.30;;;;;;;;;;8151547;28;20548;-60
2022/03/14 16:39:34;;;;;;;2.17;1.10;;;;;;;;;;8158956;28;20031;-60
2022/03/14 16:43:35;;;;;;;5.03;1.80;;;;;;;;;;8157478;28;20027;-62
2022/03/14 16:47:35;;;;;;;2.85;1.45;;;;;;;;;;8158143;28;20838;-60
2022/03/14 16:51:37;;;;;;;4.00;1.23;;;;;;;;;;8158012;28;20564;-59
2022/03/14 16:55:38;;;;;;;3.13;1.02;;;;;;;;;;8158950;28;20347;-61
2022/03/14 16:59:38;;;;;;;2.67;1.17;;;;;;;;;;8160826;29;20023;-61
2022/03/14 17:03:39;;;;;;;5.00;1.20;;;;;;;;;;8160535;28;20067;-63
2022/03/14 17:07:39;;;;;;;4.05;1.02;;;;;;;;;;8162246;28;20652;-60
2022/03/14 17:11:40;;;;;;;2.00;0.90;;;;;;;;;;8154556;29;21546;-59
2022/03/14 17:15:41;;;;;;;1.85;1.02;;;;;;;;;;8148730;28;20098;-59
2022/03/14 17:19:42;;;;;;;4.28;0.85;;;;;;;;;;8153688;28;20545;-59
2022/03/14 17:23:42;;;;;;;2.42;0.98;;;;;;;;;;8152848;28;20476;-60
2022/03/14 17:27:43;;;;;;;3.70;1.08;;;;;;;;;;8149396;28;20042;-58
2022/03/14 17:31:43;;;;;;;4.15;1.10;;;;;;;;;;8149275;28;20051;-58
2022/03/14 17:35:43;;;;;;;5.05;1.30;;;;;;;;;;8150531;28;20027;-60
2022/03/14 17:39:45;;;;;;;3.47;1.20;;;;;;;;;;8148257;28;20030;-58
2022/03/14 17:43:45;;;;;;;1.65;0.85;;;;;;;;;;8149172;28;20027;-58
2022/03/14 17:47:45;;;;;;;4.83;1.13;;;;;;;;;;8146513;28;20050;-59
2022/03/14 17:51:46;;;;;;;2.95;1.20;;;;;;;;;;8148146;28;20262;-59
2022/03/14 17:55:46;;;;;;;2.20;1.20;;;;;;;;;;8146872;28;20027;-58
2022/03/14 17:59:47;;;;;;;3.00;1.35;;;;;;;;;;8146823;28;20413;-58
2022/03/14 18:03:47;;;;;;;3.10;1.13;;;;;;;;;;8149881;28;20040;-59
2022/03/14 18:07:47;;;;;;;3.90;1.60;;;;;;;;;;8149649;29;20023;-59
2022/03/14 18:11:47;;;;;;;4.95;2.00;;;;;;;;;;8143419;28;20630;-59
2022/03/14 18:15:48;;;;;;;5.25;2.45;;;;;;;;;;8143794;28;20031;-58
2022/03/14 18:19:48;;;;;;;3.05;1.77;;;;;;;;;;8144537;28;20034;-59
2022/03/14 18:23:48;;;;;;;4.40;1.30;;;;;;;;;;8146294;28;20211;-59
2022/03/14 18:27:49;;;;;;;3.70;1.50;;;;;;;;;;8145168;28;20118;-59
2022/03/14 18:31:49;;;;;;;3.90;1.70;;;;;;;;;;8147654;28;20039;-59
2022/03/14 18:35:50;;;;;;;2.67;1.40;;;;;;;;;;8147369;28;20370;-61
2022/03/14 18:39:50;;;;;;;3.65;1.55;;;;;;;;;;8143355;28;20031;-59
2022/03/14 18:43:51;;;;;;;4.63;1.75;;;;;;;;;;8147089;29;20752;-59
2022/03/14 18:47:52;;;;;;;3.65;1.75;;;;;;;;;;8144567;28;20039;-59
2022/03/14 18:51:52;;;;;;;2.92;1.50;;;;;;;;;;8144688;28;20032;-59
2022/03/14 18:55:53;;;;;;;5.60;1.93;;;;;;;;;;8146470;28;20147;-58
2022/03/14 18:59:53;;;;;;;6.30;1.38;;;;;;;;;;8143362;28;20263;-58
2022/03/14 19:03:53;;;;;;;3.65;1.30;;;;;;;;;;8144740;28;20729;-58
2022/03/14 19:07:54;;;;;;;4.07;1.10;;;;;;;;;;8146475;28;20066;-58
2022/03/14 19:11:54;;;;;;;2.27;1.03;;;;;;;;;;8145527;28;20019;-58
2022/03/14 19:15:56;;;;;;;7.13;1.30;;;;;;;;;;8144604;28;20311;-58
2022/03/14 19:19:56;;;;;;;2.92;1.02;;;;;;;;;;8147498;28;20090;-59
2022/03/14 19:23:56;;;;;;;1.95;0.90;;;;;;;;;;8143212;28;20027;-59
2022/03/14 19:27:56;;;;;;;3.53;1.63;;;;;;;;;;8144656;28;20058;-58
2022/03/14 19:32:01;;;;;;;4.95;2.72;;;;;;;;;;8143263;28;20031;-58
2022/03/14 19:36:03;;;;;;;3.53;1.80;;;;;;;;;;8145841;28;20050;-58
2022/03/14 19:40:03;;;;;;;1.83;1.45;;;;;;;;;;8144307;28;20041;-59
2022/03/14 19:44:05;;;;;;;5.78;2.20;;;;;;;;;;8144525;28;20039;-59
2022/03/14 19:48:06;;;;;;;2.70;1.55;;;;;;;;;;8143602;28;20113;-59
2022/03/14 19:52:07;;;;;;;2.67;1.13;;;;;;;;;;8141372;28;20031;-59
2022/03/14 19:56:08;;;;;;;0.80;0.73;;;;;;;;;;8144021;28;20110;-59
2022/03/14 20:00:09;;;;;;;1.35;0.88;;;;;;;;;;8142198;28;20532;-58
2022/03/14 20:04:10;;;;;;;4.95;0.95;;;;;;;;;;8144624;28;20031;-58
2022/03/14 20:08:10;;;;;;;2.30;1.20;;;;;;;;;;8144630;28;20496;-59
2022/03/14 20:12:10;;;;;;;4.20;1.02;;;;;;;;;;8145960;29;20022;-58
2022/03/14 20:16:11;;;;;;;4.47;2.00;;;;;;;;;;8143577;28;20035;-59
2022/03/14 20:20:12;;;;;;;3.30;1.50;;;;;;;;;;8145074;28;20345;-59
2022/03/14 20:24:13;;;;;;;6.22;1.50;;;;;;;;;;8145885;28;20110;-59
2022/03/14 20:28:14;;;;;;;3.92;1.33;;;;;;;;;;8144908;28;20031;-58
2022/03/14 20:32:14;;;;;;;3.03;1.05;;;;;;;;;;8137402;28;20048;-58
2022/03/14 20:36:15;;;;;;;4.72;1.60;;;;;;;;;;8146283;28;20087;-60
2022/03/14 20:40:16;;;;;;;2.80;1.10;;;;;;;;;;8144016;28;20097;-58
2022/03/14 20:44:16;;;;;;;2.50;1.33;;;;;;;;;;8147782;28;20055;-58
2022/03/14 20:48:16;;;;;;;4.20;1.95;;;;;;;;;;8148264;28;20691;-58
2022/03/14 20:52:17;;;;;;;3.35;1.65;;;;;;;;;;8145443;28;20027;-57
2022/03/14 20:56:17;;;;;;;3.40;1.88;;;;;;;;;;8145975;28;20033;-58
2022/03/14 21:00:18;;;;;;;3.13;1.60;;;;;;;;;;8144776;28;20036;-58
2022/03/14 21:04:18;;;;;;;4.15;1.48;;;;;;;;;;8146153;28;20058;-59
2022/03/14 21:08:19;;;;;;;3.53;1.45;;;;;;;;;;8145696;28;20202;-61
2022/03/14 21:12:20;;;;;;;3.75;1.52;;;;;;;;;;8149145;29;20031;-58
2022/03/14 21:16:22;;;;;;;8.98;1.88;;;;;;;;;;8145644;28;20059;-59
2022/03/14 21:20:24;;;;;;;7.70;1.60;;;;;;;;;;8145439;28;20027;-58
2022/03/14 21:24:28;;;;;;;7.18;2.45;;;;;;;;;;8144184;28;20047;-59
2022/03/14 21:28:28;;;;;;;2.25;1.50;;;;;;;;;;8149030;28;20027;-58
2022/03/14 21:32:28;;;;;;;2.38;1.20;;;;;;;;;;8145356;28;20859;-56
2022/03/14 21:36:28;;;;;;;4.37;2.40;;;;;;;;;;8145858;28;20201;-57
2022/03/14 21:40:29;;;;;;;6.00;2.55;;;;;;;;;;8144864;28;20295;-57
2022/03/14 21:44:29;;;;;;;4.15;2.35;;;;;;;;;;8145113;28;20038;-57
2022/03/14 21:48:29;;;;;;;3.73;1.83;;;;;;;;;;8144472;28;20040;-60
2022/03/14 21:52:29;;;;;;;4.55;1.90;;;;;;;;;;8146533;28;20643;-58
2022/03/14 21:56:30;;;;;;;4.70;1.93;;;;;;;;;;8148237;29;20034;-57
2022/03/14 22:00:31;;;;;;;5.30;2.17;;;;;;;;;;8151545;28;20271;-57
2022/03/14 22:04:31;;;;;;;5.50;2.08;;;;;;;;;;8152001;28;20733;-58
2022/03/14 22:08:32;;;;;;;3.60;1.70;;;;;;;;;;8152486;28;20027;-58
2022/03/14 22:12:32;;;;;;;12.00;2.30;;;;;;;;;;8151298;28;20030;-57
2022/03/14 22:16:33;;;;;;;4.28;2.25;;;;;;;;;;8151015;28;20146;-57
2022/03/14 22:20:33;;;;;;;9.27;3.97;;;;;;;;;;8149909;28;20074;-58
2022/03/14 22:24:33;;;;;;;8.53;4.50;;;;;;;;;;8151487;28;20287;-58
2022/03/14 22:28:33;;;;;;;11.85;5.95;;;;;;;;;;8148380;28;20047;-58
2022/03/14 22:32:35;;;;;;;10.13;5.10;;;;;;;;;;8148057;28;20119;-58
2022/03/14 22:36:39;;;;;;;14.30;5.88;;;;;;;;;;8150678;28;20370;-59
2022/03/14 22:40:40;;;;;;;9.45;3.85;;;;;;;;;;8152618;28;20441;-58
2022/03/14 22:44:40;;;;;;;6.13;3.20;;;;;;;;;;8149402;28;20027;-58
2022/03/14 22:48:40;;;;;;;7.53;3.45;;;;;;;;;;8148964;28;21049;-58
2022/03/14 22:52:40;;;;;;;4.10;2.72;;;;;;;;;;8150197;28;20514;-57
2022/03/14 22:56:41;;;;;;;4.43;2.63;;;;;;;;;;8149379;28;20151;-60
2022/03/14 23:00:43;;;;;;;5.80;2.47;;;;;;;;;;8148371;28;20456;-58
2022/03/14 23:09:03;;;;;;;3.97;1.63;;;;;;;;;;8149153;28;20166;-58
2022/03/14 23:13:08;;;;;;;4.07;2.50;;;;;;;;;;8149642;28;20586;-59
2022/03/14 23:17:09;;;;;;;6.15;2.42;;;;;;;;;;8150192;28;20808;-57
2022/03/14 23:21:09;;;;;;;5.03;2.10;;;;;;;;;;8149927;28;20957;-59
2022/03/14 23:25:11;;;;;;;4.15;2.17;;;;;;;;;;8149219;28;20576;-59
2022/03/14 23:29:16;;;;;;;4.72;1.67;;;;;;;;;;8147688;28;20370;-58
2022/03/14 23:33:16;;;;;;;3.42;1.60;;;;;;;;;;8149050;28;20038;-58
2022/03/14 23:37:16;;;;;;;5.88;1.73;;;;;;;;;;8146961;28;20019;-59
2022/03/14 23:41:17;;;;;;;3.95;1.88;;;;;;;;;;8147934;28;20031;-59
2022/03/14 23:45:17;;;;;;;2.50;1.83;;;;;;;;;;8149214;28;20066;-59
2022/03/14 23:49:18;;;;;;;4.22;2.10;;;;;;;;;;8148715;28;20140;-58
2022/03/14 23:53:18;;;;;;;4.15;1.85;;;;;;;;;;8148485;28;20031;-59
2022/03/14 23:57:18;;;;;;;7.22;3.58;;;;;;;;;;8146929;28;20023;-59
